sensor_id;sensor_type;location;lat;lon;timestamp;temperature;humidity
15690;DHT22;7945;48.816;11.506;2022-12-18T00:02:14;-4.90;99.90
15690;DHT22;7945;48.816;11.506;2022-12-18T00:04:41;-4.90;99.90
15690;DHT22;7945;48.816;11.506;2022-12-18T00:07:08;-4.80;99.90
15690;DHT22;7945;48.816;11.506;2022-12-18T00:09:35;-4.80;99.90
15690;DHT22;7945;48.816;11.506;2022-12-18T00:12:02;-4.80;99.90
15690;DHT22;7945;48.816;11.506;2022-12-18T00:14:29;-4.70;99.90
15690;DHT22;7945;48.816;11.506;2022-12-18T00:16:57;-4.70;99.90
15690;DHT22;7945;48.816;11.506;2022-12-18T00:19:26;-4.60;99.90
15690;DHT22;7945;48.816;11.506;2022-12-18T00:21:53;-4.50;99.90
15690;DHT22;7945;48.816;11.506;2022-12-18T00:24:20;-4.50;99.90
15690;DHT22;7945;48.816;11.506;2022-12-18T00:26:46;-4.50;99.90
15690;DHT22;7945;48.816;11.506;2022-12-18T00:29:13;-4.50;99.90
15690;DHT22;7945;48.816;11.506;2022-12-18T00:31:41;-4.50;99.90
15690;DHT22;7945;48.816;11.506;2022-12-18T00:34:11;-4.50;99.90
15690;DHT22;7945;48.816;11.506;2022-12-18T00:36:39;-4.60;99.90
15690;DHT22;7945;48.816;11.506;2022-12-18T00:39:06;-4.60;99.90
15690;DHT22;7945;48.816;11.506;2022-12-18T00:41:33;-4.60;99.90
15690;DHT22;7945;48.816;11.506;2022-12-18T00:44:18;-4.60;99.90
15690;DHT22;7945;48.816;11.506;2022-12-18T00:46:47;-4.60;99.90
15690;DHT22;7945;48.816;11.506;2022-12-18T00:49:17;-4.50;99.90
15690;DHT22;7945;48.816;11.506;2022-12-18T00:51:44;-4.50;99.90
15690;DHT22;7945;48.816;11.506;2022-12-18T00:54:11;-4.50;99.90
15690;DHT22;7945;48.816;11.506;2022-12-18T00:56:38;-4.50;99.90
15690;DHT22;7945;48.816;11.506;2022-12-18T00:59:05;-4.50;99.90
15690;DHT22;7945;48.816;11.506;2022-12-18T01:01:32;-4.50;99.90
15690;DHT22;7945;48.816;11.506;2022-12-18T01:04:00;-4.50;99.90
15690;DHT22;7945;48.816;11.506;2022-12-18T01:06:29;-4.40;99.90
15690;DHT22;7945;48.816;11.506;2022-12-18T01:08:56;-4.40;99.90
15690;DHT22;7945;48.816;11.506;2022-12-18T01:11:23;-4.40;99.90
15690;DHT22;7945;48.816;11.506;2022-12-18T01:13:51;-4.30;99.90
15690;DHT22;7945;48.816;11.506;2022-12-18T01:16:18;-4.30;99.90
15690;DHT22;7945;48.816;11.506;2022-12-18T01:18:45;-4.30;99.90
15690;DHT22;7945;48.816;11.506;2022-12-18T01:21:14;-4.30;99.90
15690;DHT22;7945;48.816;11.506;2022-12-18T01:23:42;-4.30;99.90
15690;DHT22;7945;48.816;11.506;2022-12-18T01:26:11;-4.30;99.90
15690;DHT22;7945;48.816;11.506;2022-12-18T01:28:38;-4.30;99.90
15690;DHT22;7945;48.816;11.506;2022-12-18T01:31:12;-4.30;99.90
15690;DHT22;7945;48.816;11.506;2022-12-18T01:33:39;-4.30;99.90
15690;DHT22;7945;48.816;11.506;2022-12-18T01:36:06;-4.30;99.90
15690;DHT22;7945;48.816;11.506;2022-12-18T01:38:33;-4.20;99.90
15690;DHT22;7945;48.816;11.506;2022-12-18T01:41:02;-4.20;99.90
15690;DHT22;7945;48.816;11.506;2022-12-18T01:43:42;-4.20;99.90
15690;DHT22;7945;48.816;11.506;2022-12-18T01:46:10;-4.20;99.90
15690;DHT22;7945;48.816;11.506;2022-12-18T01:48:37;-4.10;99.90
15690;DHT22;7945;48.816;11.506;2022-12-18T01:51:06;-4.10;99.90
15690;DHT22;7945;48.816;11.506;2022-12-18T01:53:33;-4.10;99.90
15690;DHT22;7945;48.816;11.506;2022-12-18T01:56:01;-4.00;99.90
15690;DHT22;7945;48.816;11.506;2022-12-18T01:58:35;-4.00;99.90
15690;DHT22;7945;48.816;11.506;2022-12-18T02:01:03;-3.30;99.90
15690;DHT22;7945;48.816;11.506;2022-12-18T02:03:30;-3.90;99.90
15690;DHT22;7945;48.816;11.506;2022-12-18T02:06:04;-3.90;99.90
15690;DHT22;7945;48.816;11.506;2022-12-18T02:08:37;-3.90;99.90
15690;DHT22;7945;48.816;11.506;2022-12-18T02:11:15;-3.90;99.90
15690;DHT22;7945;48.816;11.506;2022-12-18T02:13:50;-3.90;99.90
15690;DHT22;7945;48.816;11.506;2022-12-18T02:16:23;-3.80;99.90
15690;DHT22;7945;48.816;11.506;2022-12-18T02:18:55;-3.80;99.90
15690;DHT22;7945;48.816;11.506;2022-12-18T02:21:30;-3.80;99.90
15690;DHT22;7945;48.816;11.506;2022-12-18T02:24:10;-3.80;99.90
15690;DHT22;7945;48.816;11.506;2022-12-18T02:26:44;-3.80;99.90
15690;DHT22;7945;48.816;11.506;2022-12-18T02:29:15;-3.80;99.90
15690;DHT22;7945;48.816;11.506;2022-12-18T02:31:45;-3.80;99.90
15690;DHT22;7945;48.816;11.506;2022-12-18T02:34:15;-3.80;99.90
15690;DHT22;7945;48.816;11.506;2022-12-18T02:36:44;-3.80;99.90
15690;DHT22;7945;48.816;11.506;2022-12-18T02:39:13;-3.90;99.90
15690;DHT22;7945;48.816;11.506;2022-12-18T02:41:43;-3.90;99.90
15690;DHT22;7945;48.816;11.506;2022-12-18T02:44:12;-3.80;99.90
15690;DHT22;7945;48.816;11.506;2022-12-18T02:46:41;-3.80;99.90
15690;DHT22;7945;48.816;11.506;2022-12-18T02:49:17;-3.80;99.90
15690;DHT22;7945;48.816;11.506;2022-12-18T02:51:51;-3.70;99.90
15690;DHT22;7945;48.816;11.506;2022-12-18T02:54:27;-3.70;99.90
15690;DHT22;7945;48.816;11.506;2022-12-18T02:57:03;-3.70;99.90
15690;DHT22;7945;48.816;11.506;2022-12-18T02:59:38;-3.60;99.90
15690;DHT22;7945;48.816;11.506;2022-12-18T03:02:17;-3.60;99.90
15690;DHT22;7945;48.816;11.506;2022-12-18T03:04:49;-3.60;99.90
15690;DHT22;7945;48.816;11.506;2022-12-18T03:07:21;-3.70;99.90
15690;DHT22;7945;48.816;11.506;2022-12-18T03:09:51;-3.60;99.90
15690;DHT22;7945;48.816;11.506;2022-12-18T03:12:24;-3.60;99.90
15690;DHT22;7945;48.816;11.506;2022-12-18T03:14:58;-3.70;99.90
15690;DHT22;7945;48.816;11.506;2022-12-18T03:17:28;-3.70;99.90
15690;DHT22;7945;48.816;11.506;2022-12-18T03:20:00;-3.70;99.90
15690;DHT22;7945;48.816;11.506;2022-12-18T03:22:30;-3.70;99.90
15690;DHT22;7945;48.816;11.506;2022-12-18T03:25:00;-3.70;99.90
15690;DHT22;7945;48.816;11.506;2022-12-18T03:27:31;-3.70;99.90
15690;DHT22;7945;48.816;11.506;2022-12-18T03:30:02;-3.70;99.90
15690;DHT22;7945;48.816;11.506;2022-12-18T03:32:38;-3.60;99.90
15690;DHT22;7945;48.816;11.506;2022-12-18T03:35:08;-3.60;99.90
15690;DHT22;7945;48.816;11.506;2022-12-18T03:37:37;-3.60;99.90
15690;DHT22;7945;48.816;11.506;2022-12-18T03:40:05;-3.60;99.90
15690;DHT22;7945;48.816;11.506;2022-12-18T03:42:40;-3.60;99.90
15690;DHT22;7945;48.816;11.506;2022-12-18T03:45:13;-3.50;99.90
15690;DHT22;7945;48.816;11.506;2022-12-18T03:47:49;-3.50;99.90
15690;DHT22;7945;48.816;11.506;2022-12-18T03:50:21;-3.50;99.90
15690;DHT22;7945;48.816;11.506;2022-12-18T03:52:52;-3.50;99.90
15690;DHT22;7945;48.816;11.506;2022-12-18T03:55:22;-3.50;99.90
15690;DHT22;7945;48.816;11.506;2022-12-18T03:57:52;-3.50;99.90
15690;DHT22;7945;48.816;11.506;2022-12-18T04:00:20;-3.50;99.90
15690;DHT22;7945;48.816;11.506;2022-12-18T04:02:51;-3.50;99.90
15690;DHT22;7945;48.816;11.506;2022-12-18T04:05:20;-3.40;99.90
15690;DHT22;7945;48.816;11.506;2022-12-18T04:07:50;-3.40;99.90
15690;DHT22;7945;48.816;11.506;2022-12-18T04:10:18;-3.40;99.90
15690;DHT22;7945;48.816;11.506;2022-12-18T04:12:45;-3.30;99.90
15690;DHT22;7945;48.816;11.506;2022-12-18T04:15:14;-3.30;99.90
15690;DHT22;7945;48.816;11.506;2022-12-18T04:17:47;-3.30;99.90
15690;DHT22;7945;48.816;11.506;2022-12-18T04:20:15;-3.30;99.90
15690;DHT22;7945;48.816;11.506;2022-12-18T04:22:42;-3.20;99.90
15690;DHT22;7945;48.816;11.506;2022-12-18T04:25:12;-3.20;99.90
15690;DHT22;7945;48.816;11.506;2022-12-18T04:27:38;-3.20;99.90
15690;DHT22;7945;48.816;11.506;2022-12-18T04:30:06;-3.20;99.90
15690;DHT22;7945;48.816;11.506;2022-12-18T04:32:35;-3.20;99.90
15690;DHT22;7945;48.816;11.506;2022-12-18T04:35:02;-3.20;99.90
15690;DHT22;7945;48.816;11.506;2022-12-18T04:37:32;-3.20;99.90
15690;DHT22;7945;48.816;11.506;2022-12-18T04:39:59;-3.20;99.90
15690;DHT22;7945;48.816;11.506;2022-12-18T04:42:25;-3.10;99.90
15690;DHT22;7945;48.816;11.506;2022-12-18T04:44:52;-3.10;99.90
15690;DHT22;7945;48.816;11.506;2022-12-18T04:47:19;-3.10;99.90
15690;DHT22;7945;48.816;11.506;2022-12-18T04:49:47;-3.10;99.90
15690;DHT22;7945;48.816;11.506;2022-12-18T04:52:14;-3.10;99.90
15690;DHT22;7945;48.816;11.506;2022-12-18T04:54:41;-3.10;99.90
15690;DHT22;7945;48.816;11.506;2022-12-18T04:57:07;-3.10;99.90
15690;DHT22;7945;48.816;11.506;2022-12-18T04:59:34;-3.10;99.90
15690;DHT22;7945;48.816;11.506;2022-12-18T05:02:01;-3.10;99.90
15690;DHT22;7945;48.816;11.506;2022-12-18T05:04:28;-3.10;99.90
15690;DHT22;7945;48.816;11.506;2022-12-18T05:06:56;-3.00;99.90
15690;DHT22;7945;48.816;11.506;2022-12-18T05:09:23;-3.00;99.90
15690;DHT22;7945;48.816;11.506;2022-12-18T05:11:50;-3.00;99.90
15690;DHT22;7945;48.816;11.506;2022-12-18T05:14:17;-3.10;99.90
15690;DHT22;7945;48.816;11.506;2022-12-18T05:16:44;-3.10;99.90
15690;DHT22;7945;48.816;11.506;2022-12-18T05:19:11;-3.10;99.90
15690;DHT22;7945;48.816;11.506;2022-12-18T05:21:38;-3.10;99.90
15690;DHT22;7945;48.816;11.506;2022-12-18T05:24:06;-3.10;99.90
15690;DHT22;7945;48.816;11.506;2022-12-18T05:26:33;-3.10;99.90
15690;DHT22;7945;48.816;11.506;2022-12-18T05:29:00;-3.10;99.90
15690;DHT22;7945;48.816;11.506;2022-12-18T05:31:27;-3.20;99.90
15690;DHT22;7945;48.816;11.506;2022-12-18T05:33:54;-3.10;99.90
15690;DHT22;7945;48.816;11.506;2022-12-18T05:36:21;-3.10;99.90
15690;DHT22;7945;48.816;11.506;2022-12-18T05:38:48;-3.10;99.90
15690;DHT22;7945;48.816;11.506;2022-12-18T05:41:16;-3.10;99.90
15690;DHT22;7945;48.816;11.506;2022-12-18T05:43:43;-3.10;99.90
15690;DHT22;7945;48.816;11.506;2022-12-18T05:46:13;-3.10;99.90
15690;DHT22;7945;48.816;11.506;2022-12-18T05:48:41;-3.10;99.90
15690;DHT22;7945;48.816;11.506;2022-12-18T05:51:09;-3.10;99.90
15690;DHT22;7945;48.816;11.506;2022-12-18T05:53:37;-3.10;99.90
15690;DHT22;7945;48.816;11.506;2022-12-18T05:56:06;-3.00;99.90
15690;DHT22;7945;48.816;11.506;2022-12-18T05:58:34;-3.00;99.90
15690;DHT22;7945;48.816;11.506;2022-12-18T06:01:07;-3.00;99.90
15690;DHT22;7945;48.816;11.506;2022-12-18T06:03:35;-3.00;99.90
15690;DHT22;7945;48.816;11.506;2022-12-18T06:06:01;-3.00;99.90
15690;DHT22;7945;48.816;11.506;2022-12-18T06:08:28;-3.00;99.90
15690;DHT22;7945;48.816;11.506;2022-12-18T06:10:55;-3.00;99.90
15690;DHT22;7945;48.816;11.506;2022-12-18T06:14:57;-3.10;99.90
15690;DHT22;7945;48.816;11.506;2022-12-18T06:17:27;-3.10;99.90
15690;DHT22;7945;48.816;11.506;2022-12-18T06:19:55;-3.10;99.90
15690;DHT22;7945;48.816;11.506;2022-12-18T06:22:22;-3.10;99.90
15690;DHT22;7945;48.816;11.506;2022-12-18T06:24:49;-3.10;99.90
15690;DHT22;7945;48.816;11.506;2022-12-18T06:27:15;-3.10;99.90
15690;DHT22;7945;48.816;11.506;2022-12-18T06:29:42;-3.10;99.90
15690;DHT22;7945;48.816;11.506;2022-12-18T06:32:10;-3.10;99.90
15690;DHT22;7945;48.816;11.506;2022-12-18T06:34:37;-3.10;99.90
15690;DHT22;7945;48.816;11.506;2022-12-18T06:37:04;-3.10;99.90
15690;DHT22;7945;48.816;11.506;2022-12-18T06:39:31;-3.10;99.90
15690;DHT22;7945;48.816;11.506;2022-12-18T06:41:58;-3.00;99.90
15690;DHT22;7945;48.816;11.506;2022-12-18T06:44:25;-3.00;99.90
15690;DHT22;7945;48.816;11.506;2022-12-18T06:46:52;-3.00;99.90
15690;DHT22;7945;48.816;11.506;2022-12-18T06:49:20;-3.00;99.90
15690;DHT22;7945;48.816;11.506;2022-12-18T06:51:47;-3.00;99.90
15690;DHT22;7945;48.816;11.506;2022-12-18T06:54:14;-3.00;99.90
15690;DHT22;7945;48.816;11.506;2022-12-18T06:56:40;-3.00;99.90
15690;DHT22;7945;48.816;11.506;2022-12-18T06:59:07;-3.00;99.90
15690;DHT22;7945;48.816;11.506;2022-12-18T07:01:34;-3.00;99.90
15690;DHT22;7945;48.816;11.506;2022-12-18T07:04:01;-3.00;99.90
15690;DHT22;7945;48.816;11.506;2022-12-18T07:06:29;-3.00;99.90
15690;DHT22;7945;48.816;11.506;2022-12-18T07:08:56;-2.90;99.90
15690;DHT22;7945;48.816;11.506;2022-12-18T07:11:23;-2.90;99.90
15690;DHT22;7945;48.816;11.506;2022-12-18T07:13:51;-2.90;99.90
15690;DHT22;7945;48.816;11.506;2022-12-18T07:16:19;-2.90;99.90
15690;DHT22;7945;48.816;11.506;2022-12-18T07:18:47;-2.90;99.90
15690;DHT22;7945;48.816;11.506;2022-12-18T07:21:15;-2.90;99.90
15690;DHT22;7945;48.816;11.506;2022-12-18T07:23:43;-3.00;99.90
15690;DHT22;7945;48.816;11.506;2022-12-18T07:26:14;-2.90;99.90
15690;DHT22;7945;48.816;11.506;2022-12-18T07:28:42;-2.90;99.90
15690;DHT22;7945;48.816;11.506;2022-12-18T07:31:11;-2.90;99.90
15690;DHT22;7945;48.816;11.506;2022-12-18T07:33:38;-2.90;99.90
15690;DHT22;7945;48.816;11.506;2022-12-18T07:36:07;-2.90;99.90
15690;DHT22;7945;48.816;11.506;2022-12-18T07:38:34;-2.90;99.90
15690;DHT22;7945;48.816;11.506;2022-12-18T07:41:04;-2.90;99.90
15690;DHT22;7945;48.816;11.506;2022-12-18T07:43:32;-2.40;99.90
15690;DHT22;7945;48.816;11.506;2022-12-18T07:45:59;-2.90;99.90
15690;DHT22;7945;48.816;11.506;2022-12-18T07:48:25;-2.90;99.90
15690;DHT22;7945;48.816;11.506;2022-12-18T07:50:52;-2.90;99.90
15690;DHT22;7945;48.816;11.506;2022-12-18T07:53:19;-2.90;99.90
15690;DHT22;7945;48.816;11.506;2022-12-18T07:55:46;-2.90;99.90
15690;DHT22;7945;48.816;11.506;2022-12-18T07:58:14;-2.90;99.90
15690;DHT22;7945;48.816;11.506;2022-12-18T08:00:41;-2.90;99.90
15690;DHT22;7945;48.816;11.506;2022-12-18T08:03:08;-2.90;99.90
15690;DHT22;7945;48.816;11.506;2022-12-18T08:05:34;-2.90;99.90
15690;DHT22;7945;48.816;11.506;2022-12-18T08:08:01;-2.90;99.90
15690;DHT22;7945;48.816;11.506;2022-12-18T08:10:28;-2.90;99.90
15690;DHT22;7945;48.816;11.506;2022-12-18T08:12:55;-2.90;99.90
15690;DHT22;7945;48.816;11.506;2022-12-18T08:15:23;-2.80;99.90
15690;DHT22;7945;48.816;11.506;2022-12-18T08:17:50;-2.80;99.90
15690;DHT22;7945;48.816;11.506;2022-12-18T08:20:16;-2.80;99.90
15690;DHT22;7945;48.816;11.506;2022-12-18T08:22:44;-2.80;99.90
15690;DHT22;7945;48.816;11.506;2022-12-18T08:25:11;-2.80;99.90
15690;DHT22;7945;48.816;11.506;2022-12-18T08:27:37;-2.70;99.90
15690;DHT22;7945;48.816;11.506;2022-12-18T08:30:06;-2.70;99.90
15690;DHT22;7945;48.816;11.506;2022-12-18T08:32:34;-2.70;99.90
15690;DHT22;7945;48.816;11.506;2022-12-18T08:35:01;-2.70;99.90
15690;DHT22;7945;48.816;11.506;2022-12-18T08:37:27;-2.60;99.90
15690;DHT22;7945;48.816;11.506;2022-12-18T08:39:54;-2.60;99.90
15690;DHT22;7945;48.816;11.506;2022-12-18T08:42:21;-2.60;99.90
15690;DHT22;7945;48.816;11.506;2022-12-18T08:45:07;-2.60;99.90
15690;DHT22;7945;48.816;11.506;2022-12-18T08:47:35;-2.50;99.90
15690;DHT22;7945;48.816;11.506;2022-12-18T08:50:02;-2.50;99.90
15690;DHT22;7945;48.816;11.506;2022-12-18T08:52:31;-2.50;99.90
15690;DHT22;7945;48.816;11.506;2022-12-18T08:54:58;-2.50;99.90
15690;DHT22;7945;48.816;11.506;2022-12-18T08:57:25;-2.40;99.90
15690;DHT22;7945;48.816;11.506;2022-12-18T08:59:52;-2.40;99.90
15690;DHT22;7945;48.816;11.506;2022-12-18T09:02:19;-2.50;99.90
15690;DHT22;7945;48.816;11.506;2022-12-18T09:04:48;-2.50;99.90
15690;DHT22;7945;48.816;11.506;2022-12-18T09:07:15;-2.50;99.90
15690;DHT22;7945;48.816;11.506;2022-12-18T09:09:42;-2.50;99.90
15690;DHT22;7945;48.816;11.506;2022-12-18T09:12:09;-2.50;99.90
15690;DHT22;7945;48.816;11.506;2022-12-18T09:14:36;-2.50;99.90
15690;DHT22;7945;48.816;11.506;2022-12-18T09:17:02;-2.50;99.90
15690;DHT22;7945;48.816;11.506;2022-12-18T09:19:30;-2.60;99.90
15690;DHT22;7945;48.816;11.506;2022-12-18T09:21:58;-2.50;99.90
15690;DHT22;7945;48.816;11.506;2022-12-18T09:24:25;-2.50;99.90
15690;DHT22;7945;48.816;11.506;2022-12-18T09:26:53;-2.40;99.90
15690;DHT22;7945;48.816;11.506;2022-12-18T09:29:21;-2.40;99.90
15690;DHT22;7945;48.816;11.506;2022-12-18T09:31:48;-2.40;99.90
15690;DHT22;7945;48.816;11.506;2022-12-18T09:34:14;-2.30;99.90
15690;DHT22;7945;48.816;11.506;2022-12-18T09:36:42;-2.30;99.90
15690;DHT22;7945;48.816;11.506;2022-12-18T09:39:10;-2.30;99.90
15690;DHT22;7945;48.816;11.506;2022-12-18T09:41:44;-2.30;99.90
15690;DHT22;7945;48.816;11.506;2022-12-18T09:44:24;-2.30;99.90
15690;DHT22;7945;48.816;11.506;2022-12-18T09:46:58;-2.30;99.90
15690;DHT22;7945;48.816;11.506;2022-12-18T09:49:28;-2.30;99.90
15690;DHT22;7945;48.816;11.506;2022-12-18T09:51:59;-2.30;99.90
15690;DHT22;7945;48.816;11.506;2022-12-18T09:54:35;-2.30;99.90
15690;DHT22;7945;48.816;11.506;2022-12-18T09:57:02;-2.30;99.90
15690;DHT22;7945;48.816;11.506;2022-12-18T09:59:33;-2.30;99.90
15690;DHT22;7945;48.816;11.506;2022-12-18T10:02:15;-2.30;99.90
15690;DHT22;7945;48.816;11.506;2022-12-18T10:04:42;-2.30;99.90
15690;DHT22;7945;48.816;11.506;2022-12-18T10:07:14;-2.30;99.90
15690;DHT22;7945;48.816;11.506;2022-12-18T10:09:50;-2.30;99.90
15690;DHT22;7945;48.816;11.506;2022-12-18T10:12:23;-2.30;99.90
15690;DHT22;7945;48.816;11.506;2022-12-18T10:14:58;-2.30;99.90
15690;DHT22;7945;48.816;11.506;2022-12-18T10:17:31;-2.20;99.90
15690;DHT22;7945;48.816;11.506;2022-12-18T10:20:02;-2.20;99.90
15690;DHT22;7945;48.816;11.506;2022-12-18T10:22:48;-2.20;99.90
15690;DHT22;7945;48.816;11.506;2022-12-18T10:25:22;-2.10;99.90
15690;DHT22;7945;48.816;11.506;2022-12-18T10:27:53;-2.10;99.90
15690;DHT22;7945;48.816;11.506;2022-12-18T10:30:22;-2.10;99.90
15690;DHT22;7945;48.816;11.506;2022-12-18T10:32:49;-2.00;99.90
15690;DHT22;7945;48.816;11.506;2022-12-18T10:35:19;-2.00;99.90
15690;DHT22;7945;48.816;11.506;2022-12-18T10:38:04;-2.00;99.90
15690;DHT22;7945;48.816;11.506;2022-12-18T10:40:47;-1.90;99.90
15690;DHT22;7945;48.816;11.506;2022-12-18T10:43:16;-1.80;99.90
15690;DHT22;7945;48.816;11.506;2022-12-18T10:46:07;-1.70;99.90
15690;DHT22;7945;48.816;11.506;2022-12-18T10:48:41;-1.60;99.90
15690;DHT22;7945;48.816;11.506;2022-12-18T10:51:20;-1.50;99.90
15690;DHT22;7945;48.816;11.506;2022-12-18T10:53:53;-1.40;99.90
15690;DHT22;7945;48.816;11.506;2022-12-18T10:56:23;-1.30;99.90
15690;DHT22;7945;48.816;11.506;2022-12-18T10:58:56;-1.30;99.90
15690;DHT22;7945;48.816;11.506;2022-12-18T11:01:23;-1.40;99.90
15690;DHT22;7945;48.816;11.506;2022-12-18T11:04:00;-1.40;99.90
15690;DHT22;7945;48.816;11.506;2022-12-18T11:06:27;-1.40;99.90
15690;DHT22;7945;48.816;11.506;2022-12-18T11:08:59;-1.40;99.90
15690;DHT22;7945;48.816;11.506;2022-12-18T11:11:28;-1.40;99.90
15690;DHT22;7945;48.816;11.506;2022-12-18T11:13:59;-1.30;99.90
15690;DHT22;7945;48.816;11.506;2022-12-18T11:16:28;-1.30;99.90
15690;DHT22;7945;48.816;11.506;2022-12-18T11:19:13;-1.30;99.90
15690;DHT22;7945;48.816;11.506;2022-12-18T11:21:42;-1.30;99.90
15690;DHT22;7945;48.816;11.506;2022-12-18T11:24:19;-1.30;99.90
15690;DHT22;7945;48.816;11.506;2022-12-18T11:26:49;-1.30;99.90
15690;DHT22;7945;48.816;11.506;2022-12-18T11:29:17;-1.30;99.90
15690;DHT22;7945;48.816;11.506;2022-12-18T11:31:45;-1.40;99.90
15690;DHT22;7945;48.816;11.506;2022-12-18T11:34:14;-1.40;99.90
15690;DHT22;7945;48.816;11.506;2022-12-18T11:36:45;-1.50;99.90
15690;DHT22;7945;48.816;11.506;2022-12-18T11:39:17;-1.50;99.90
15690;DHT22;7945;48.816;11.506;2022-12-18T11:41:52;-1.40;99.90
15690;DHT22;7945;48.816;11.506;2022-12-18T11:44:48;-1.40;99.90
15690;DHT22;7945;48.816;11.506;2022-12-18T11:47:26;-1.40;99.90
15690;DHT22;7945;48.816;11.506;2022-12-18T11:49:56;-1.40;99.90
15690;DHT22;7945;48.816;11.506;2022-12-18T11:52:29;-1.50;99.90
15690;DHT22;7945;48.816;11.506;2022-12-18T11:55:00;-1.40;99.90
15690;DHT22;7945;48.816;11.506;2022-12-18T11:57:34;-1.50;99.90
15690;DHT22;7945;48.816;11.506;2022-12-18T12:00:09;-1.50;99.90
15690;DHT22;7945;48.816;11.506;2022-12-18T12:05:47;-1.40;99.90
15690;DHT22;7945;48.816;11.506;2022-12-18T12:08:22;-1.50;99.90
15690;DHT22;7945;48.816;11.506;2022-12-18T12:10:58;-1.50;99.90
15690;DHT22;7945;48.816;11.506;2022-12-18T12:13:38;-1.50;99.90
15690;DHT22;7945;48.816;11.506;2022-12-18T12:16:15;-1.50;99.90
15690;DHT22;7945;48.816;11.506;2022-12-18T12:19:03;-1.50;99.90
15690;DHT22;7945;48.816;11.506;2022-12-18T12:21:39;-1.50;99.90
15690;DHT22;7945;48.816;11.506;2022-12-18T12:24:19;-1.50;99.90
15690;DHT22;7945;48.816;11.506;2022-12-18T12:26:57;0.00;99.90
15690;DHT22;7945;48.816;11.506;2022-12-18T12:29:40;-1.50;99.90
15690;DHT22;7945;48.816;11.506;2022-12-18T12:32:22;-1.50;99.90
15690;DHT22;7945;48.816;11.506;2022-12-18T12:35:03;-1.40;99.90
15690;DHT22;7945;48.816;11.506;2022-12-18T12:37:42;-1.40;99.90
15690;DHT22;7945;48.816;11.506;2022-12-18T12:40:17;-1.40;99.90
15690;DHT22;7945;48.816;11.506;2022-12-18T12:42:48;-1.40;99.90
15690;DHT22;7945;48.816;11.506;2022-12-18T12:45:39;-1.40;99.90
15690;DHT22;7945;48.816;11.506;2022-12-18T12:48:13;-1.40;99.90
15690;DHT22;7945;48.816;11.506;2022-12-18T12:50:43;-1.40;99.90
15690;DHT22;7945;48.816;11.506;2022-12-18T12:53:23;-1.40;99.90
15690;DHT22;7945;48.816;11.506;2022-12-18T12:55:52;-1.40;99.90
15690;DHT22;7945;48.816;11.506;2022-12-18T12:58:26;-1.40;99.90
15690;DHT22;7945;48.816;11.506;2022-12-18T13:01:04;-1.50;99.90
15690;DHT22;7945;48.816;11.506;2022-12-18T13:03:41;-1.50;99.90
15690;DHT22;7945;48.816;11.506;2022-12-18T13:06:12;-1.50;99.90
15690;DHT22;7945;48.816;11.506;2022-12-18T13:08:55;-1.40;99.90
15690;DHT22;7945;48.816;11.506;2022-12-18T13:11:32;-1.40;99.90
15690;DHT22;7945;48.816;11.506;2022-12-18T13:14:24;-1.40;99.90
15690;DHT22;7945;48.816;11.506;2022-12-18T13:17:28;-1.50;99.90
15690;DHT22;7945;48.816;11.506;2022-12-18T13:20:11;-1.50;99.90
15690;DHT22;7945;48.816;11.506;2022-12-18T13:22:41;-1.50;99.90
15690;DHT22;7945;48.816;11.506;2022-12-18T13:25:29;-1.50;99.90
15690;DHT22;7945;48.816;11.506;2022-12-18T13:28:09;-1.50;99.90
15690;DHT22;7945;48.816;11.506;2022-12-18T13:31:01;-1.50;99.90
15690;DHT22;7945;48.816;11.506;2022-12-18T13:33:47;-1.50;99.90
15690;DHT22;7945;48.816;11.506;2022-12-18T13:36:30;-1.50;99.90
15690;DHT22;7945;48.816;11.506;2022-12-18T13:39:22;-1.60;99.90
15690;DHT22;7945;48.816;11.506;2022-12-18T13:41:51;-1.60;99.90
15690;DHT22;7945;48.816;11.506;2022-12-18T13:44:31;-1.60;99.90
15690;DHT22;7945;48.816;11.506;2022-12-18T13:46:59;-1.50;99.90
15690;DHT22;7945;48.816;11.506;2022-12-18T13:49:35;-1.50;99.90
15690;DHT22;7945;48.816;11.506;2022-12-18T13:52:13;-1.50;99.90
15690;DHT22;7945;48.816;11.506;2022-12-18T13:54:42;-1.50;99.90
15690;DHT22;7945;48.816;11.506;2022-12-18T13:57:25;-1.50;99.90
15690;DHT22;7945;48.816;11.506;2022-12-18T13:59:52;-1.50;99.90
15690;DHT22;7945;48.816;11.506;2022-12-18T14:02:22;-1.60;99.90
15690;DHT22;7945;48.816;11.506;2022-12-18T14:04:51;-1.60;99.90
15690;DHT22;7945;48.816;11.506;2022-12-18T14:07:21;-1.60;99.90
15690;DHT22;7945;48.816;11.506;2022-12-18T14:09:50;-1.60;99.90
15690;DHT22;7945;48.816;11.506;2022-12-18T14:12:20;-1.60;99.90
15690;DHT22;7945;48.816;11.506;2022-12-18T14:15:06;-1.60;99.90
15690;DHT22;7945;48.816;11.506;2022-12-18T14:17:38;-1.70;99.90
15690;DHT22;7945;48.816;11.506;2022-12-18T14:20:13;-1.70;99.90
15690;DHT22;7945;48.816;11.506;2022-12-18T14:22:43;-1.70;99.90
15690;DHT22;7945;48.816;11.506;2022-12-18T14:25:21;-1.70;99.90
15690;DHT22;7945;48.816;11.506;2022-12-18T14:27:50;-1.80;99.90
15690;DHT22;7945;48.816;11.506;2022-12-18T14:30:26;-1.80;99.90
15690;DHT22;7945;48.816;11.506;2022-12-18T14:33:03;-1.80;99.90
15690;DHT22;7945;48.816;11.506;2022-12-18T14:35:32;-1.80;99.90
15690;DHT22;7945;48.816;11.506;2022-12-18T14:38:21;-1.80;99.90
15690;DHT22;7945;48.816;11.506;2022-12-18T14:40:52;-1.80;99.90
15690;DHT22;7945;48.816;11.506;2022-12-18T14:43:19;-1.80;99.90
15690;DHT22;7945;48.816;11.506;2022-12-18T14:45:46;-1.70;99.90
15690;DHT22;7945;48.816;11.506;2022-12-18T14:48:16;-1.70;99.90
15690;DHT22;7945;48.816;11.506;2022-12-18T14:50:54;-1.80;99.90
15690;DHT22;7945;48.816;11.506;2022-12-18T14:53:32;-1.80;99.90
15690;DHT22;7945;48.816;11.506;2022-12-18T14:56:00;-1.80;99.90
15690;DHT22;7945;48.816;11.506;2022-12-18T14:58:27;-1.90;99.90
15690;DHT22;7945;48.816;11.506;2022-12-18T15:00:54;-1.90;99.90
15690;DHT22;7945;48.816;11.506;2022-12-18T15:03:21;-1.90;99.90
15690;DHT22;7945;48.816;11.506;2022-12-18T15:05:49;-1.90;99.90
15690;DHT22;7945;48.816;11.506;2022-12-18T15:08:34;-1.90;99.90
15690;DHT22;7945;48.816;11.506;2022-12-18T15:11:01;-1.90;99.90
15690;DHT22;7945;48.816;11.506;2022-12-18T15:13:28;-1.90;99.90
15690;DHT22;7945;48.816;11.506;2022-12-18T15:15:56;-2.00;99.90
15690;DHT22;7945;48.816;11.506;2022-12-18T15:18:30;-2.00;99.90
15690;DHT22;7945;48.816;11.506;2022-12-18T15:21:07;-2.00;99.90
15690;DHT22;7945;48.816;11.506;2022-12-18T15:23:37;-2.10;99.90
15690;DHT22;7945;48.816;11.506;2022-12-18T15:26:12;-2.10;99.90
15690;DHT22;7945;48.816;11.506;2022-12-18T15:28:44;-2.10;99.90
15690;DHT22;7945;48.816;11.506;2022-12-18T15:31:24;-2.00;99.90
15690;DHT22;7945;48.816;11.506;2022-12-18T15:34:09;-2.00;99.90
15690;DHT22;7945;48.816;11.506;2022-12-18T15:36:39;-1.90;99.90
15690;DHT22;7945;48.816;11.506;2022-12-18T15:39:06;-2.00;99.90
15690;DHT22;7945;48.816;11.506;2022-12-18T15:41:35;-2.00;99.90
15690;DHT22;7945;48.816;11.506;2022-12-18T15:44:02;-2.00;99.90
15690;DHT22;7945;48.816;11.506;2022-12-18T15:46:28;-2.00;99.90
15690;DHT22;7945;48.816;11.506;2022-12-18T15:48:56;-2.00;99.90
15690;DHT22;7945;48.816;11.506;2022-12-18T15:51:26;-2.00;99.90
15690;DHT22;7945;48.816;11.506;2022-12-18T15:53:58;-2.10;99.90
15690;DHT22;7945;48.816;11.506;2022-12-18T15:56:25;-2.10;99.90
15690;DHT22;7945;48.816;11.506;2022-12-18T15:59:11;-2.10;99.90